sensor_id;sensor_type;location;lat;lon;timestamp;pressure;altitude;pressure_sealevel;temperature;humidity
37852;BME280;23691;52.486;4.650;2024-02-04T00:02:24;102331.38;;;11.45;84.17
37852;BME280;23691;52.486;4.650;2024-02-04T00:04:57;102336.84;;;11.44;84.32
37852;BME280;23691;52.486;4.650;2024-02-04T00:07:23;102329.81;;;11.43;84.31
37852;BME280;23691;52.486;4.650;2024-02-04T00:09:49;102331.78;;;11.41;84.15
37852;BME280;23691;52.486;4.650;2024-02-04T00:12:16;102322.28;;;11.36;83.95
37852;BME280;23691;52.486;4.650;2024-02-04T00:14:41;102335.13;;;11.33;83.99
37852;BME280;23691;52.486;4.650;2024-02-04T00:17:07;102326.38;;;11.31;83.86
37852;BME280;23691;52.486;4.650;2024-02-04T00:19:33;102314.34;;;11.25;83.75
37852;BME280;23691;52.486;4.650;2024-02-04T00:21:58;102320.94;;;11.21;83.62
37852;BME280;23691;52.486;4.650;2024-02-04T00:24:23;102316.84;;;11.17;83.72
37852;BME280;23691;52.486;4.650;2024-02-04T00:26:49;102336.56;;;11.16;83.27
37852;BME280;23691;52.486;4.650;2024-02-04T00:29:14;102328.09;;;11.11;82.87
37852;BME280;23691;52.486;4.650;2024-02-04T00:31:40;102315.94;;;11.07;82.86
37852;BME280;23691;52.486;4.650;2024-02-04T00:34:05;102318.44;;;10.99;82.80
37852;BME280;23691;52.486;4.650;2024-02-04T00:36:31;102320.50;;;10.95;82.65
37852;BME280;23691;52.486;4.650;2024-02-04T00:38:56;102322.59;;;10.91;82.62
37852;BME280;23691;52.486;4.650;2024-02-04T00:41:21;102315.81;;;10.87;82.52
37852;BME280;23691;52.486;4.650;2024-02-04T00:43:47;102314.97;;;10.87;82.50
37852;BME280;23691;52.486;4.650;2024-02-04T00:46:12;102313.50;;;10.83;82.13
37852;BME280;23691;52.486;4.650;2024-02-04T00:48:38;102306.75;;;10.79;81.83
37852;BME280;23691;52.486;4.650;2024-02-04T00:51:06;102306.13;;;10.75;81.51
37852;BME280;23691;52.486;4.650;2024-02-04T00:53:34;102303.72;;;10.72;81.36
37852;BME280;23691;52.486;4.650;2024-02-04T00:56:03;102311.03;;;10.70;81.01
37852;BME280;23691;52.486;4.650;2024-02-04T00:58:29;102307.91;;;10.65;80.56
37852;BME280;23691;52.486;4.650;2024-02-04T01:00:54;102290.53;;;10.59;80.42
37852;BME280;23691;52.486;4.650;2024-02-04T01:03:20;102301.34;;;10.58;80.26
37852;BME280;23691;52.486;4.650;2024-02-04T01:05:45;102304.19;;;10.56;80.13
37852;BME280;23691;52.486;4.650;2024-02-04T01:08:10;102300.78;;;10.54;79.99
37852;BME280;23691;52.486;4.650;2024-02-04T01:10:36;102305.41;;;10.52;79.89
37852;BME280;23691;52.486;4.650;2024-02-04T01:13:02;102308.09;;;10.52;79.70
37852;BME280;23691;52.486;4.650;2024-02-04T01:15:37;102297.38;;;10.52;79.72
37852;BME280;23691;52.486;4.650;2024-02-04T01:18:02;102299.72;;;10.45;79.84
37852;BME280;23691;52.486;4.650;2024-02-04T01:20:28;102307.88;;;10.44;79.79
37852;BME280;23691;52.486;4.650;2024-02-04T01:22:53;102304.47;;;10.42;79.88
37852;BME280;23691;52.486;4.650;2024-02-04T01:25:18;102302.75;;;10.41;79.97
37852;BME280;23691;52.486;4.650;2024-02-04T01:27:44;102302.91;;;10.39;80.12
37852;BME280;23691;52.486;4.650;2024-02-04T01:30:09;102296.56;;;10.40;80.18
37852;BME280;23691;52.486;4.650;2024-02-04T01:32:35;102300.34;;;10.38;80.07
37852;BME280;23691;52.486;4.650;2024-02-04T01:35:00;102325.16;;;10.40;80.12
37852;BME280;23691;52.486;4.650;2024-02-04T01:37:26;102317.25;;;10.38;80.25
37852;BME280;23691;52.486;4.650;2024-02-04T01:39:51;102331.50;;;10.39;80.30
37852;BME280;23691;52.486;4.650;2024-02-04T01:42:16;102326.16;;;10.39;80.18
37852;BME280;23691;52.486;4.650;2024-02-04T01:44:42;102328.94;;;10.37;80.25
37852;BME280;23691;52.486;4.650;2024-02-04T01:47:08;102321.91;;;10.36;80.16
37852;BME280;23691;52.486;4.650;2024-02-04T01:49:34;102315.69;;;10.36;80.17
37852;BME280;23691;52.486;4.650;2024-02-04T01:52:00;102311.31;;;10.35;80.02
37852;BME280;23691;52.486;4.650;2024-02-04T01:54:26;102314.94;;;10.34;79.79
37852;BME280;23691;52.486;4.650;2024-02-04T01:56:53;102317.63;;;10.34;79.79
37852;BME280;23691;52.486;4.650;2024-02-04T01:59:20;102312.41;;;10.32;79.77
37852;BME280;23691;52.486;4.650;2024-02-04T02:01:45;102312.53;;;10.30;80.11
37852;BME280;23691;52.486;4.650;2024-02-04T02:04:12;102305.50;;;10.29;79.66
37852;BME280;23691;52.486;4.650;2024-02-04T02:06:39;102298.31;;;10.30;80.03
37852;BME280;23691;52.486;4.650;2024-02-04T02:09:07;102300.88;;;10.31;79.77
37852;BME280;23691;52.486;4.650;2024-02-04T02:11:45;102293.69;;;10.32;79.67
37852;BME280;23691;52.486;4.650;2024-02-04T02:14:18;102291.97;;;10.31;79.77
37852;BME280;23691;52.486;4.650;2024-02-04T02:16:44;102299.16;;;10.30;79.92
37852;BME280;23691;52.486;4.650;2024-02-04T02:19:36;102290.28;;;10.30;79.86
37852;BME280;23691;52.486;4.650;2024-02-04T02:24:50;102290.53;;;10.27;79.91
37852;BME280;23691;52.486;4.650;2024-02-04T02:27:16;102289.78;;;10.25;79.83
37852;BME280;23691;52.486;4.650;2024-02-04T02:29:41;102298.66;;;10.25;79.81
37852;BME280;23691;52.486;4.650;2024-02-04T02:32:06;102293.47;;;10.24;79.71
37852;BME280;23691;52.486;4.650;2024-02-04T02:34:32;102307.78;;;10.23;79.50
37852;BME280;23691;52.486;4.650;2024-02-04T02:37:08;102308.63;;;10.23;79.51
37852;BME280;23691;52.486;4.650;2024-02-04T02:39:44;102303.53;;;10.20;79.24
37852;BME280;23691;52.486;4.650;2024-02-04T02:42:11;102311.69;;;10.19;79.09
37852;BME280;23691;52.486;4.650;2024-02-04T02:44:38;102317.19;;;10.17;78.94
37852;BME280;23691;52.486;4.650;2024-02-04T02:47:05;102324.34;;;10.17;78.61
37852;BME280;23691;52.486;4.650;2024-02-04T02:49:31;102315.47;;;10.16;78.76
37852;BME280;23691;52.486;4.650;2024-02-04T02:51:57;102303.81;;;10.17;78.44
37852;BME280;23691;52.486;4.650;2024-02-04T02:54:22;102300.66;;;10.12;78.96
37852;BME280;23691;52.486;4.650;2024-02-04T02:56:47;102300.78;;;10.10;78.96
37852;BME280;23691;52.486;4.650;2024-02-04T02:59:13;102309.66;;;10.11;78.96
37852;BME280;23691;52.486;4.650;2024-02-04T03:01:39;102298.00;;;10.12;78.93
37852;BME280;23691;52.486;4.650;2024-02-04T03:04:05;102308.69;;;10.12;79.28
37852;BME280;23691;52.486;4.650;2024-02-04T03:06:30;102299.66;;;10.13;79.04
37852;BME280;23691;52.486;4.650;2024-02-04T03:08:55;102299.66;;;10.13;78.95
37852;BME280;23691;52.486;4.650;2024-02-04T03:11:24;102293.47;;;10.13;78.86
37852;BME280;23691;52.486;4.650;2024-02-04T03:13:49;102301.63;;;10.11;78.62
37852;BME280;23691;52.486;4.650;2024-02-04T03:16:14;102292.03;;;10.08;78.40
37852;BME280;23691;52.486;4.650;2024-02-04T03:18:41;102272.56;;;10.06;78.28
37852;BME280;23691;52.486;4.650;2024-02-04T03:21:14;102284.72;;;10.10;78.11
37852;BME280;23691;52.486;4.650;2024-02-04T03:23:41;102298.22;;;10.09;77.11
37852;BME280;23691;52.486;4.650;2024-02-04T03:26:07;102301.88;;;10.08;76.79
37852;BME280;23691;52.486;4.650;2024-02-04T03:28:33;102315.50;;;10.05;76.46
37852;BME280;23691;52.486;4.650;2024-02-04T03:30:58;102313.94;;;10.02;76.11
37852;BME280;23691;52.486;4.650;2024-02-04T03:33:24;102314.78;;;10.03;75.89
37852;BME280;23691;52.486;4.650;2024-02-04T03:35:49;102308.31;;;10.05;75.49
37852;BME280;23691;52.486;4.650;2024-02-04T03:38:14;102313.78;;;10.04;75.22
37852;BME280;23691;52.486;4.650;2024-02-04T03:40:40;102321.81;;;10.04;74.92
37852;BME280;23691;52.486;4.650;2024-02-04T03:43:08;102322.22;;;9.99;75.08
37852;BME280;23691;52.486;4.650;2024-02-04T03:45:35;102310.06;;;9.95;74.90
37852;BME280;23691;52.486;4.650;2024-02-04T03:48:01;102303.00;;;9.94;74.58
37852;BME280;23691;52.486;4.650;2024-02-04T03:50:26;102298.53;;;9.95;74.67
37852;BME280;23691;52.486;4.650;2024-02-04T03:52:51;102293.28;;;9.93;74.20
37852;BME280;23691;52.486;4.650;2024-02-04T03:55:18;102276.41;;;9.93;74.56
37852;BME280;23691;52.486;4.650;2024-02-04T03:57:44;102277.81;;;9.97;74.33
37852;BME280;23691;52.486;4.650;2024-02-04T04:00:09;102270.06;;;9.94;74.44
37852;BME280;23691;52.486;4.650;2024-02-04T04:02:37;102265.72;;;9.93;74.49
37852;BME280;23691;52.486;4.650;2024-02-04T04:05:03;102274.47;;;9.95;74.19
37852;BME280;23691;52.486;4.650;2024-02-04T04:07:30;102277.81;;;9.97;73.82
37852;BME280;23691;52.486;4.650;2024-02-04T04:09:55;102273.59;;;9.94;74.32
37852;BME280;23691;52.486;4.650;2024-02-04T04:12:20;102266.28;;;9.96;73.85
37852;BME280;23691;52.486;4.650;2024-02-04T04:14:46;102265.19;;;9.99;73.95
37852;BME280;23691;52.486;4.650;2024-02-04T04:17:11;102264.97;;;10.02;74.06
37852;BME280;23691;52.486;4.650;2024-02-04T04:19:38;102265.53;;;10.05;73.85
37852;BME280;23691;52.486;4.650;2024-02-04T04:22:04;102270.06;;;10.05;73.87
37852;BME280;23691;52.486;4.650;2024-02-04T04:24:29;102271.72;;;10.06;73.75
37852;BME280;23691;52.486;4.650;2024-02-04T04:26:54;102254.72;;;10.07;73.82
37852;BME280;23691;52.486;4.650;2024-02-04T04:29:20;102242.94;;;10.09;73.54
37852;BME280;23691;52.486;4.650;2024-02-04T04:31:46;102259.69;;;10.12;73.73
37852;BME280;23691;52.486;4.650;2024-02-04T04:34:11;102252.38;;;10.14;73.45
37852;BME280;23691;52.486;4.650;2024-02-04T04:36:37;102257.50;;;10.17;72.27
37852;BME280;23691;52.486;4.650;2024-02-04T04:39:02;102256.16;;;10.11;72.76
37852;BME280;23691;52.486;4.650;2024-02-04T04:41:28;102239.38;;;10.09;72.27
37852;BME280;23691;52.486;4.650;2024-02-04T04:43:53;102236.72;;;10.09;71.83
37852;BME280;23691;52.486;4.650;2024-02-04T04:46:19;102237.44;;;10.11;71.78
37852;BME280;23691;52.486;4.650;2024-02-04T04:48:45;102230.13;;;10.13;71.76
37852;BME280;23691;52.486;4.650;2024-02-04T04:51:13;102229.03;;;10.16;71.82
37852;BME280;23691;52.486;4.650;2024-02-04T04:53:38;102220.75;;;10.19;72.51
37852;BME280;23691;52.486;4.650;2024-02-04T04:56:04;102234.84;;;10.21;72.73
37852;BME280;23691;52.486;4.650;2024-02-04T04:58:30;102239.97;;;10.24;73.19
37852;BME280;23691;52.486;4.650;2024-02-04T05:00:55;102242.50;;;10.25;73.66
37852;BME280;23691;52.486;4.650;2024-02-04T05:03:21;102238.84;;;10.26;74.00
37852;BME280;23691;52.486;4.650;2024-02-04T05:05:46;102243.13;;;10.29;74.06
37852;BME280;23691;52.486;4.650;2024-02-04T05:08:14;102242.03;;;10.31;74.10
37852;BME280;23691;52.486;4.650;2024-02-04T05:10:40;102221.59;;;10.30;73.95
37852;BME280;23691;52.486;4.650;2024-02-04T05:13:05;102221.72;;;10.29;73.81
37852;BME280;23691;52.486;4.650;2024-02-04T05:15:30;102202.13;;;10.28;73.36
37852;BME280;23691;52.486;4.650;2024-02-04T05:17:56;102198.00;;;10.24;73.06
37852;BME280;23691;52.486;4.650;2024-02-04T05:20:21;102203.47;;;10.23;72.76
37852;BME280;23691;52.486;4.650;2024-02-04T05:22:46;102196.28;;;10.23;72.16
37852;BME280;23691;52.486;4.650;2024-02-04T05:25:12;102207.25;;;10.20;71.81
37852;BME280;23691;52.486;4.650;2024-02-04T05:27:37;102220.50;;;10.22;71.80
37852;BME280;23691;52.486;4.650;2024-02-04T05:30:03;102213.59;;;10.19;71.58
37852;BME280;23691;52.486;4.650;2024-02-04T05:32:29;102205.44;;;10.21;71.34
37852;BME280;23691;52.486;4.650;2024-02-04T05:34:55;102211.38;;;10.24;70.86
37852;BME280;23691;52.486;4.650;2024-02-04T05:37:20;102207.72;;;10.25;70.65
37852;BME280;23691;52.486;4.650;2024-02-04T05:39:45;102210.16;;;10.28;70.57
37852;BME280;23691;52.486;4.650;2024-02-04T05:42:11;102208.22;;;10.30;70.40
37852;BME280;23691;52.486;4.650;2024-02-04T05:44:36;102212.59;;;10.31;70.76
37852;BME280;23691;52.486;4.650;2024-02-04T05:47:01;102205.25;;;10.34;70.57
37852;BME280;23691;52.486;4.650;2024-02-04T05:49:27;102216.84;;;10.34;70.82
37852;BME280;23691;52.486;4.650;2024-02-04T05:51:52;102216.69;;;10.36;70.93
37852;BME280;23691;52.486;4.650;2024-02-04T05:54:17;102211.22;;;10.37;71.04
37852;BME280;23691;52.486;4.650;2024-02-04T05:56:43;102198.56;;;10.39;71.10
37852;BME280;23691;52.486;4.650;2024-02-04T05:59:14;102198.31;;;10.42;71.38
37852;BME280;23691;52.486;4.650;2024-02-04T06:01:41;102187.47;;;10.44;71.47
37852;BME280;23691;52.486;4.650;2024-02-04T06:04:06;102176.50;;;10.47;71.73
37852;BME280;23691;52.486;4.650;2024-02-04T06:06:32;102168.34;;;10.48;71.47
37852;BME280;23691;52.486;4.650;2024-02-04T06:08:57;102167.38;;;10.49;71.76
37852;BME280;23691;52.486;4.650;2024-02-04T06:11:23;102180.75;;;10.49;72.03
37852;BME280;23691;52.486;4.650;2024-02-04T06:13:48;102172.59;;;10.51;72.20
37852;BME280;23691;52.486;4.650;2024-02-04T06:16:14;102155.81;;;10.49;72.45
37852;BME280;23691;52.486;4.650;2024-02-04T06:18:40;102146.81;;;10.50;72.80
37852;BME280;23691;52.486;4.650;2024-02-04T06:21:05;102158.22;;;10.52;73.00
37852;BME280;23691;52.486;4.650;2024-02-04T06:23:33;102158.94;;;10.54;73.24
37852;BME280;23691;52.486;4.650;2024-02-04T06:26:00;102166.38;;;10.50;73.48
37852;BME280;23691;52.486;4.650;2024-02-04T06:28:25;102178.06;;;10.49;73.73
37852;BME280;23691;52.486;4.650;2024-02-04T06:30:50;102184.41;;;10.48;73.90
37852;BME280;23691;52.486;4.650;2024-02-04T06:33:16;102177.94;;;10.51;74.03
37852;BME280;23691;52.486;4.650;2024-02-04T06:35:41;102180.47;;;10.52;74.35
37852;BME280;23691;52.486;4.650;2024-02-04T06:38:08;102171.59;;;10.52;74.13
37852;BME280;23691;52.486;4.650;2024-02-04T06:40:34;102184.00;;;10.53;74.14
37852;BME280;23691;52.486;4.650;2024-02-04T06:43:03;102151.75;;;10.55;74.23
37852;BME280;23691;52.486;4.650;2024-02-04T06:45:28;102163.69;;;10.50;74.17
37852;BME280;23691;52.486;4.650;2024-02-04T06:47:54;102157.38;;;10.51;74.35
37852;BME280;23691;52.486;4.650;2024-02-04T06:50:22;102153.44;;;10.56;74.34
37852;BME280;23691;52.486;4.650;2024-02-04T06:52:48;102139.81;;;10.59;74.43
37852;BME280;23691;52.486;4.650;2024-02-04T06:55:13;102140.38;;;10.62;74.82
37852;BME280;23691;52.486;4.650;2024-02-04T06:57:41;102140.13;;;10.65;75.02
37852;BME280;23691;52.486;4.650;2024-02-04T07:00:06;102137.88;;;10.70;74.97
37852;BME280;23691;52.486;4.650;2024-02-04T07:02:35;102130.56;;;10.72;75.15
37852;BME280;23691;52.486;4.650;2024-02-04T07:05:01;102141.72;;;10.78;75.35
37852;BME280;23691;52.486;4.650;2024-02-04T07:07:26;102138.91;;;10.79;75.69
37852;BME280;23691;52.486;4.650;2024-02-04T07:09:51;102139.75;;;10.80;76.03
37852;BME280;23691;52.486;4.650;2024-02-04T07:12:18;102139.47;;;10.83;76.45
37852;BME280;23691;52.486;4.650;2024-02-04T07:14:46;102141.59;;;10.79;76.78
37852;BME280;23691;52.486;4.650;2024-02-04T07:17:13;102154.00;;;10.80;77.37
37852;BME280;23691;52.486;4.650;2024-02-04T07:19:48;102150.34;;;10.81;77.62
37852;BME280;23691;52.486;4.650;2024-02-04T07:22:14;102151.31;;;10.80;77.83
37852;BME280;23691;52.486;4.650;2024-02-04T07:24:40;102140.75;;;10.79;77.93
37852;BME280;23691;52.486;4.650;2024-02-04T07:27:15;102124.41;;;10.82;78.15
37852;BME280;23691;52.486;4.650;2024-02-04T07:29:40;102134.28;;;10.81;78.35
37852;BME280;23691;52.486;4.650;2024-02-04T07:32:06;102126.09;;;10.83;78.59
37852;BME280;23691;52.486;4.650;2024-02-04T07:34:32;102142.63;;;10.88;78.83
37852;BME280;23691;52.486;4.650;2024-02-04T07:36:58;102146.00;;;10.90;78.81
37852;BME280;23691;52.486;4.650;2024-02-04T07:39:23;102139.53;;;10.92;78.97
37852;BME280;23691;52.486;4.650;2024-02-04T07:41:48;102136.00;;;10.92;78.95
37852;BME280;23691;52.486;4.650;2024-02-04T07:44:14;102135.88;;;10.93;79.19
37852;BME280;23691;52.486;4.650;2024-02-04T07:46:39;102137.44;;;10.96;78.86
37852;BME280;23691;52.486;4.650;2024-02-04T07:49:05;102151.56;;;10.98;78.87
37852;BME280;23691;52.486;4.650;2024-02-04T07:51:31;102143.34;;;11.00;78.77
37852;BME280;23691;52.486;4.650;2024-02-04T07:53:57;102144.06;;;11.02;78.48
37852;BME280;23691;52.486;4.650;2024-02-04T07:56:22;102140.44;;;11.03;78.42
37852;BME280;23691;52.486;4.650;2024-02-04T07:58:53;102135.06;;;11.03;78.66
37852;BME280;23691;52.486;4.650;2024-02-04T08:01:18;102139.16;;;11.07;78.73
37852;BME280;23691;52.486;4.650;2024-02-04T08:03:44;102142.56;;;11.09;78.53
37852;BME280;23691;52.486;4.650;2024-02-04T08:06:12;102140.19;;;11.15;78.31
37852;BME280;23691;52.486;4.650;2024-02-04T08:08:37;102132.00;;;11.17;78.44
37852;BME280;23691;52.486;4.650;2024-02-04T08:11:02;102129.31;;;11.17;78.39
37852;BME280;23691;52.486;4.650;2024-02-04T08:13:28;102131.88;;;11.18;78.43
37852;BME280;23691;52.486;4.650;2024-02-04T08:15:53;102132.59;;;11.21;78.44
37852;BME280;23691;52.486;4.650;2024-02-04T08:18:19;102127.94;;;11.23;78.53
37852;BME280;23691;52.486;4.650;2024-02-04T08:20:44;102125.94;;;11.25;78.59
37852;BME280;23691;52.486;4.650;2024-02-04T08:23:10;102114.81;;;11.29;78.69
37852;BME280;23691;52.486;4.650;2024-02-04T08:25:35;102107.66;;;11.30;78.83
37852;BME280;23691;52.486;4.650;2024-02-04T08:28:00;102103.44;;;11.27;79.03
37852;BME280;23691;52.486;4.650;2024-02-04T08:30:26;102103.25;;;11.29;79.04
37852;BME280;23691;52.486;4.650;2024-02-04T08:32:51;102104.97;;;11.30;78.88
37852;BME280;23691;52.486;4.650;2024-02-04T08:35:17;102103.97;;;11.31;78.99
37852;BME280;23691;52.486;4.650;2024-02-04T08:37:43;102099.88;;;11.36;79.03
37852;BME280;23691;52.486;4.650;2024-02-04T08:40:09;102091.44;;;11.41;79.00
37852;BME280;23691;52.486;4.650;2024-02-04T08:42:35;102092.16;;;11.43;79.03
37852;BME280;23691;52.486;4.650;2024-02-04T08:45:01;102093.69;;;11.46;79.23
37852;BME280;23691;52.486;4.650;2024-02-04T08:47:26;102101.88;;;11.44;79.38
37852;BME280;23691;52.486;4.650;2024-02-04T08:49:51;102093.69;;;11.46;79.29
37852;BME280;23691;52.486;4.650;2024-02-04T08:52:17;102104.00;;;11.50;79.35
37852;BME280;23691;52.486;4.650;2024-02-04T08:54:43;102106.56;;;11.52;79.37
37852;BME280;23691;52.486;4.650;2024-02-04T08:57:08;102109.25;;;11.52;79.44
37852;BME280;23691;52.486;4.650;2024-02-04T08:59:34;102109.38;;;11.50;79.48
37852;BME280;23691;52.486;4.650;2024-02-04T09:02:00;102104.72;;;11.52;79.48
37852;BME280;23691;52.486;4.650;2024-02-04T09:04:25;102103.72;;;11.53;79.42
37852;BME280;23691;52.486;4.650;2024-02-04T09:06:50;102094.56;;;11.56;79.37
37852;BME280;23691;52.486;4.650;2024-02-04T09:09:16;102108.94;;;11.55;79.42
37852;BME280;23691;52.486;4.650;2024-02-04T09:11:41;102115.03;;;11.57;79.60
37852;BME280;23691;52.486;4.650;2024-02-04T09:14:06;102104.13;;;11.58;79.30
37852;BME280;23691;52.486;4.650;2024-02-04T09:16:32;102098.50;;;11.61;79.18
37852;BME280;23691;52.486;4.650;2024-02-04T09:18:58;102096.53;;;11.64;79.21
37852;BME280;23691;52.486;4.650;2024-02-04T09:21:23;102104.31;;;11.67;79.25
37852;BME280;23691;52.486;4.650;2024-02-04T09:23:48;102096.53;;;11.64;79.03
37852;BME280;23691;52.486;4.650;2024-02-04T09:26:14;102101.63;;;11.67;79.68
37852;BME280;23691;52.486;4.650;2024-02-04T09:28:40;102110.34;;;11.69;79.29
37852;BME280;23691;52.486;4.650;2024-02-04T09:31:08;102101.75;;;11.75;79.07
37852;BME280;23691;52.486;4.650;2024-02-04T09:33:33;102100.50;;;11.69;79.04
37852;BME280;23691;52.486;4.650;2024-02-04T09:35:59;102109.94;;;11.73;78.92
37852;BME280;23691;52.486;4.650;2024-02-04T09:38:24;102109.81;;;11.75;78.98
37852;BME280;23691;52.486;4.650;2024-02-04T09:40:51;102098.22;;;11.74;79.00
37852;BME280;23691;52.486;4.650;2024-02-04T09:43:16;102102.03;;;11.72;79.07
37852;BME280;23691;52.486;4.650;2024-02-04T09:45:44;102118.97;;;11.72;78.92
37852;BME280;23691;52.486;4.650;2024-02-04T09:48:10;102109.94;;;11.73;78.77
37852;BME280;23691;52.486;4.650;2024-02-04T09:50:37;102104.00;;;11.70;78.88
37852;BME280;23691;52.486;4.650;2024-02-04T09:53:07;102109.66;;;11.76;78.74
37852;BME280;23691;52.486;4.650;2024-02-04T09:55:40;102110.34;;;11.78;78.65
37852;BME280;23691;52.486;4.650;2024-02-04T09:58:06;102114.88;;;11.78;78.61
37852;BME280;23691;52.486;4.650;2024-02-04T10:00:35;102126.19;;;11.81;78.60
37852;BME280;23691;52.486;4.650;2024-02-04T10:03:09;102126.00;;;11.83;78.63
37852;BME280;23691;52.486;4.650;2024-02-04T10:05:41;102123.06;;;11.76;78.79
37852;BME280;23691;52.486;4.650;2024-02-04T10:08:07;102116.84;;;11.76;78.68
37852;BME280;23691;52.486;4.650;2024-02-04T10:10:35;102120.22;;;11.78;78.72
37852;BME280;23691;52.486;4.650;2024-02-04T10:13:05;102114.31;;;11.74;78.76
37852;BME280;23691;52.486;4.650;2024-02-04T10:15:31;102115.28;;;11.73;78.85
37852;BME280;23691;52.486;4.650;2024-02-04T10:17:56;102119.53;;;11.76;78.87
37852;BME280;23691;52.486;4.650;2024-02-04T10:20:22;102133.63;;;11.78;78.92
37852;BME280;23691;52.486;4.650;2024-02-04T10:22:47;102131.66;;;11.80;78.88
37852;BME280;23691;52.486;4.650;2024-02-04T10:25:15;102123.50;;;11.81;78.80
37852;BME280;23691;52.486;4.650;2024-02-04T10:27:43;102121.28;;;11.87;78.81
37852;BME280;23691;52.486;4.650;2024-02-04T10:30:08;102113.91;;;11.89;78.72
37852;BME280;23691;52.486;4.650;2024-02-04T10:32:34;102125.22;;;11.92;78.63
37852;BME280;23691;52.486;4.650;2024-02-04T10:34:59;102121.94;;;11.98;78.55
37852;BME280;23691;52.486;4.650;2024-02-04T10:37:26;102133.38;;;12.10;78.44
37852;BME280;23691;52.486;4.650;2024-02-04T10:39:52;102133.94;;;12.14;78.29
37852;BME280;23691;52.486;4.650;2024-02-04T10:42:21;102134.38;;;12.19;78.07
37852;BME280;23691;52.486;4.650;2024-02-04T10:44:49;102140.16;;;12.24;77.96
37852;BME280;23691;52.486;4.650;2024-02-04T10:47:17;102123.03;;;12.25;77.85
37852;BME280;23691;52.486;4.650;2024-02-04T10:49:52;102137.28;;;12.35;77.72
37852;BME280;23691;52.486;4.650;2024-02-04T10:52:24;102139.81;;;12.46;77.33
37852;BME280;23691;52.486;4.650;2024-02-04T10:54:52;102134.00;;;12.51;77.24
37852;BME280;23691;52.486;4.650;2024-02-04T10:57:21;102140.91;;;12.54;77.07
37852;BME280;23691;52.486;4.650;2024-02-04T10:59:48;102135.25;;;12.57;77.14
37852;BME280;23691;52.486;4.650;2024-02-04T11:02:15;102135.53;;;12.63;76.62
37852;BME280;23691;52.486;4.650;2024-02-04T11:04:42;102141.44;;;12.67;76.35
37852;BME280;23691;52.486;4.650;2024-02-04T11:07:10;102144.69;;;12.71;76.05
37852;BME280;23691;52.486;4.650;2024-02-04T11:09:44;102137.16;;;12.74;76.05
37852;BME280;23691;52.486;4.650;2024-02-04T11:12:14;102143.53;;;12.73;76.19
37852;BME280;23691;52.486;4.650;2024-02-04T11:14:44;102117.44;;;12.65;76.47
37852;BME280;23691;52.486;4.650;2024-02-04T11:17:24;102113.19;;;12.63;76.54
37852;BME280;23691;52.486;4.650;2024-02-04T11:25:45;102109.06;;;12.68;76.89
37852;BME280;23691;52.486;4.650;2024-02-04T11:28:12;102096.34;;;12.71;76.87
37852;BME280;23691;52.486;4.650;2024-02-04T11:30:38;102099.44;;;12.76;76.77
37852;BME280;23691;52.486;4.650;2024-02-04T11:33:04;102093.84;;;12.87;76.89
37852;BME280;23691;52.486;4.650;2024-02-04T11:35:32;102093.34;;;13.01;76.44
37852;BME280;23691;52.486;4.650;2024-02-04T11:37:57;102108.34;;;13.04;76.38
37852;BME280;23691;52.486;4.650;2024-02-04T11:40:23;102110.13;;;13.13;76.44
37852;BME280;23691;52.486;4.650;2024-02-04T11:42:49;102102.53;;;13.26;76.13
37852;BME280;23691;52.486;4.650;2024-02-04T11:45:22;102098.84;;;13.37;76.07
37852;BME280;23691;52.486;4.650;2024-02-04T11:48:00;102107.16;;;13.44;75.86
37852;BME280;23691;52.486;4.650;2024-02-04T11:50:29;102098.13;;;13.53;75.48
37852;BME280;23691;52.486;4.650;2024-02-04T11:53:25;102087.00;;;13.48;75.35
37852;BME280;23691;52.486;4.650;2024-02-04T11:55:55;102096.59;;;13.32;75.56
37852;BME280;23691;52.486;4.650;2024-02-04T11:58:21;102093.09;;;13.22;75.80
37852;BME280;23691;52.486;4.650;2024-02-04T12:00:52;102089.06;;;13.08;76.05
37852;BME280;23691;52.486;4.650;2024-02-04T12:03:28;102078.56;;;12.97;76.37
37852;BME280;23691;52.486;4.650;2024-02-04T12:05:58;102071.66;;;12.95;76.42
37852;BME280;23691;52.486;4.650;2024-02-04T12:08:30;102067.00;;;12.87;76.53
37852;BME280;23691;52.486;4.650;2024-02-04T12:11:27;102071.19;;;12.72;76.74
37852;BME280;23691;52.486;4.650;2024-02-04T12:13:53;102070.25;;;12.63;76.80
37852;BME280;23691;52.486;4.650;2024-02-04T12:16:20;102060.47;;;12.62;76.95
37852;BME280;23691;52.486;4.650;2024-02-04T12:18:50;102064.00;;;12.62;77.26
37852;BME280;23691;52.486;4.650;2024-02-04T12:21:16;102060.38;;;12.54;77.18
37852;BME280;23691;52.486;4.650;2024-02-04T12:23:41;102061.66;;;12.50;77.53
37852;BME280;23691;52.486;4.650;2024-02-04T12:26:06;102049.69;;;12.44;77.72
37852;BME280;23691;52.486;4.650;2024-02-04T12:28:32;102046.28;;;12.42;77.71
37852;BME280;23691;52.486;4.650;2024-02-04T12:30:58;102046.72;;;12.37;77.99
37852;BME280;23691;52.486;4.650;2024-02-04T12:33:25;102028.78;;;12.38;78.04
37852;BME280;23691;52.486;4.650;2024-02-04T12:35:51;102030.47;;;12.49;77.72
37852;BME280;23691;52.486;4.650;2024-02-04T12:38:18;102029.31;;;12.51;77.60
37852;BME280;23691;52.486;4.650;2024-02-04T12:40:45;102049.81;;;12.42;77.78
37852;BME280;23691;52.486;4.650;2024-02-04T12:43:11;102050.69;;;12.43;77.83
37852;BME280;23691;52.486;4.650;2024-02-04T12:45:37;102053.38;;;12.43;77.66
37852;BME280;23691;52.486;4.650;2024-02-04T12:48:05;102053.50;;;12.41;77.88
37852;BME280;23691;52.486;4.650;2024-02-04T12:50:30;102042.22;;;12.38;77.78
37852;BME280;23691;52.486;4.650;2024-02-04T12:53:05;102038.81;;;12.45;77.54
37852;BME280;23691;52.486;4.650;2024-02-04T12:55:32;102029.63;;;12.48;77.51
37852;BME280;23691;52.486;4.650;2024-02-04T12:58:06;102029.56;;;12.58;77.38